Time;durP1;ratioP1;P1;durP2;ratioP2;P2;SDS_P1;SDS_P2;PMS_P1;PMS_P2;Temp;Humidity;BMP_temperature;BMP_pressure;BME280_temperature;BME280_humidity;BME280_pressure;Samples;Min_cycle;Max_cycle;Signal;HPM_P1;HPM_P2
2022/01/29 00:01:09;;;;;;;;;;;-0.40;99.90;;;;;;5006183;28;19918;-85
2022/01/29 00:03:36;;;;;;;;;;;-0.50;99.90;;;;;;4995455;28;19917;-88
2022/01/29 00:06:02;;;;;;;;;;;-0.60;99.90;;;;;;5023547;28;19999;-87
2022/01/29 00:08:27;;;;;;;;;;;-0.60;99.90;;;;;;5020652;28;20392;-86
2022/01/29 00:10:56;;;;;;;;;;;-0.70;99.90;;;;;;5009737;28;19917;-87
2022/01/29 00:13:25;;;;;;;;;;;-0.70;99.90;;;;;;5011766;28;19914;-88
2022/01/29 00:15:50;;;;;;;;;;;-0.70;99.90;;;;;;5012025;28;19933;-87
2022/01/29 00:18:16;;;;;;;;;;;-0.60;99.90;;;;;;5012967;28;19918;-86
2022/01/29 00:20:41;;;;;;;;;;;-0.70;99.90;;;;;;4983119;28;19918;-89
2022/01/29 00:23:08;;;;;;;;;;;-0.80;99.90;;;;;;4990439;28;19914;-88
2022/01/29 00:25:33;;;;;;;;;;;-0.80;99.90;;;;;;5000561;28;19968;-87
2022/01/29 00:27:59;;;;;;;;;;;-0.80;99.90;;;;;;5012635;28;19917;-87
2022/01/29 00:30:31;;;;;;;;;;;-0.80;99.90;;;;;;5012104;28;19913;-87
2022/01/29 00:32:57;;;;;;;;;;;-0.80;99.90;;;;;;4994834;28;19940;-85
2022/01/29 00:35:22;;;;;;;;;;;-0.80;99.90;;;;;;5013208;28;19913;-85
2022/01/29 00:37:48;;;;;;;;;;;-0.70;99.90;;;;;;5014526;28;19921;-86
2022/01/29 00:40:14;;;;;;;;;;;-0.70;99.90;;;;;;4998220;28;19967;-86
2022/01/29 00:42:39;;;;;;;;;;;-0.60;99.90;;;;;;5024620;28;19996;-86
2022/01/29 00:45:06;;;;;;;;;;;-0.60;99.90;;;;;;5018021;28;20327;-86
2022/01/29 00:47:32;;;;;;;;;;;-0.60;99.90;;;;;;5031852;28;19974;-87
2022/01/29 00:49:57;;;;;;;;;;;-0.50;99.90;;;;;;5031925;28;19913;-86
2022/01/29 00:52:23;;;;;;;;;;;-0.50;99.90;;;;;;5026410;28;19913;-85
2022/01/29 00:54:50;;;;;;;;;;;-0.50;99.90;;;;;;5012244;28;19917;-88
2022/01/29 00:57:16;;;;;;;;;;;-0.40;99.90;;;;;;4993150;28;19909;-87
2022/01/29 00:59:42;;;;;;;;;;;-0.40;99.90;;;;;;5024406;28;20071;-87
2022/01/29 01:02:09;;;;;;;;;;;-0.40;99.90;;;;;;5031063;28;20418;-89
2022/01/29 01:04:38;;;;;;;;;;;-0.40;99.90;;;;;;5014261;28;19913;-87
2022/01/29 01:07:04;;;;;;;;;;;-0.40;99.90;;;;;;5031057;28;20323;-88
2022/01/29 01:09:31;;;;;;;;;;;-0.40;99.90;;;;;;5017958;28;20089;-84
2022/01/29 01:11:57;;;;;;;;;;;-0.40;99.90;;;;;;5001941;28;20308;-84
2022/01/29 01:14:22;;;;;;;;;;;-0.40;99.90;;;;;;4988129;28;20586;-85
2022/01/29 01:16:48;;;;;;;;;;;-0.30;99.90;;;;;;5020111;28;19972;-84
2022/01/29 01:19:13;;;;;;;;;;;-0.40;99.90;;;;;;5004194;28;19921;-81
2022/01/29 01:21:41;;;;;;;;;;;-0.40;99.90;;;;;;5023049;28;19924;-81
2022/01/29 01:24:07;;;;;;;;;;;-0.40;99.90;;;;;;5000849;28;19956;-81
2022/01/29 01:26:33;;;;;;;;;;;-0.40;99.90;;;;;;4999491;28;19953;-82
2022/01/29 01:28:58;;;;;;;;;;;-0.40;99.90;;;;;;5023421;28;19917;-82
2022/01/29 01:31:24;;;;;;;;;;;-0.40;99.90;;;;;;5021108;28;20003;-82
2022/01/29 01:33:50;;;;;;;;;;;-0.40;99.90;;;;;;5021003;28;20032;-81
2022/01/29 01:36:19;;;;;;;;;;;-0.30;99.90;;;;;;5012541;28;19913;-81
2022/01/29 01:39:12;;;;;;;;;;;-0.30;99.90;;;;;;5021471;28;20427;-81
2022/01/29 01:41:41;;;;;;;;;;;-0.30;99.90;;;;;;5017903;28;20748;-80
2022/01/29 01:44:09;;;;;;;;;;;-0.20;99.90;;;;;;5020892;28;19913;-79
2022/01/29 01:46:35;;;;;;;;;;;-0.20;99.90;;;;;;5022701;28;20004;-82
2022/01/29 01:49:00;;;;;;;;;;;-0.20;99.90;;;;;;5022412;28;20436;-80
2022/01/29 01:51:26;;;;;;;;;;;-0.20;99.90;;;;;;5002079;28;20396;-80
2022/01/29 01:53:54;;;;;;;;;;;-0.20;99.90;;;;;;5006853;28;20630;-81
2022/01/29 01:56:20;;;;;;;;;;;-0.20;99.90;;;;;;5018151;28;19921;-81
2022/01/29 01:58:46;;;;;;;;;;;-0.20;99.90;;;;;;4999950;28;19914;-80
2022/01/29 02:01:12;;;;;;;;;;;-0.20;99.90;;;;;;5019937;28;19917;-79
2022/01/29 02:03:37;;;;;;;;;;;0.00;99.90;;;;;;5003739;28;20345;-81
2022/01/29 02:06:03;;;;;;;;;;;0.00;99.90;;;;;;5019281;28;19917;-80
2022/01/29 02:08:30;;;;;;;;;;;0.00;99.90;;;;;;4998133;28;20356;-81
2022/01/29 02:11:05;;;;;;;;;;;0.00;99.90;;;;;;5006996;28;19924;-80
2022/01/29 02:13:31;;;;;;;;;;;0.00;99.90;;;;;;5018378;28;20004;-81
2022/01/29 02:15:57;;;;;;;;;;;0.00;99.90;;;;;;4984598;28;20024;-81
2022/01/29 02:18:23;;;;;;;;;;;0.00;99.90;;;;;;5021626;28;20293;-82
2022/01/29 02:20:49;;;;;;;;;;;0.10;99.90;;;;;;5015170;28;19917;-81
2022/01/29 02:23:17;;;;;;;;;;;0.10;99.90;;;;;;5016790;28;19924;-80
2022/01/29 02:25:43;;;;;;;;;;;0.10;99.90;;;;;;5003418;28;19971;-80
2022/01/29 02:28:10;;;;;;;;;;;0.10;99.90;;;;;;5021831;28;19983;-81
2022/01/29 02:30:38;;;;;;;;;;;0.10;99.90;;;;;;5016507;28;19952;-80
2022/01/29 02:33:06;;;;;;;;;;;0.10;99.90;;;;;;5019293;28;19937;-83
2022/01/29 02:35:42;;;;;;;;;;;0.20;99.90;;;;;;5018743;28;20345;-82
2022/01/29 02:38:08;;;;;;;;;;;0.20;99.90;;;;;;5021371;28;19928;-79
2022/01/29 02:40:38;;;;;;;;;;;0.20;99.90;;;;;;5002240;28;20004;-81
2022/01/29 02:43:14;;;;;;;;;;;0.30;99.90;;;;;;5004025;28;19917;-80
2022/01/29 02:45:41;;;;;;;;;;;0.30;99.90;;;;;;5004348;28;19924;-80
2022/01/29 02:48:07;;;;;;;;;;;0.40;99.90;;;;;;5010877;28;20353;-82
2022/01/29 02:50:32;;;;;;;;;;;0.40;99.90;;;;;;5021280;28;19948;-81
2022/01/29 02:52:58;;;;;;;;;;;0.40;99.90;;;;;;5025696;28;19929;-79
2022/01/29 02:55:24;;;;;;;;;;;0.40;99.90;;;;;;5004271;28;19959;-80
2022/01/29 02:57:50;;;;;;;;;;;0.30;99.90;;;;;;5003684;28;20423;-79
2022/01/29 03:00:15;;;;;;;;;;;0.30;99.90;;;;;;5016498;28;19910;-82
2022/01/29 03:02:41;;;;;;;;;;;0.30;99.90;;;;;;5020092;28;20296;-83
2022/01/29 03:05:06;;;;;;;;;;;0.30;99.90;;;;;;5025490;28;19920;-79
2022/01/29 03:07:32;;;;;;;;;;;0.30;99.90;;;;;;4991130;28;19967;-79
2022/01/29 03:09:57;;;;;;;;;;;0.30;99.90;;;;;;4999676;28;19925;-79
2022/01/29 03:12:23;;;;;;;;;;;0.20;99.90;;;;;;5023591;28;19917;-79
2022/01/29 03:14:48;;;;;;;;;;;0.20;99.90;;;;;;5020486;28;19917;-80
2022/01/29 03:17:14;;;;;;;;;;;0.10;99.90;;;;;;5003343;28;20364;-83
2022/01/29 03:19:40;;;;;;;;;;;0.00;99.90;;;;;;5025336;28;19948;-84
2022/01/29 03:22:05;;;;;;;;;;;0.00;99.90;;;;;;4999556;28;19965;-82
2022/01/29 03:24:31;;;;;;;;;;;-0.10;99.90;;;;;;5020601;28;20328;-80
2022/01/29 03:26:56;;;;;;;;;;;0.00;99.90;;;;;;5020288;28;19960;-81
2022/01/29 03:29:22;;;;;;;;;;;0.00;99.90;;;;;;4991093;28;19921;-79
2022/01/29 03:31:47;;;;;;;;;;;0.10;99.90;;;;;;5002967;28;20619;-84
2022/01/29 03:34:13;;;;;;;;;;;0.10;99.90;;;;;;5016601;28;19957;-82
2022/01/29 03:36:38;;;;;;;;;;;0.10;99.90;;;;;;5016778;28;20008;-82
2022/01/29 03:39:04;;;;;;;;;;;0.10;99.90;;;;;;5017350;28;20064;-83
2022/01/29 03:41:30;;;;;;;;;;;0.10;99.90;;;;;;5018211;28;20124;-80
2022/01/29 03:44:01;;;;;;;;;;;0.10;99.90;;;;;;5016726;28;19925;-84
2022/01/29 03:46:26;;;;;;;;;;;0.10;99.90;;;;;;5026112;28;19956;-85
2022/01/29 03:48:55;;;;;;;;;;;0.10;99.90;;;;;;5019992;28;19945;-81
2022/01/29 03:51:20;;;;;;;;;;;0.10;99.90;;;;;;5003508;28;19917;-82
2022/01/29 03:53:47;;;;;;;;;;;0.10;99.90;;;;;;5002722;28;20028;-83
2022/01/29 03:56:13;;;;;;;;;;;0.10;99.90;;;;;;5010509;28;19983;-81
2022/01/29 03:58:43;;;;;;;;;;;0.10;99.90;;;;;;5019833;28;19920;-83
2022/01/29 04:01:09;;;;;;;;;;;0.10;99.90;;;;;;5018725;28;19918;-83
2022/01/29 04:03:35;;;;;;;;;;;0.10;99.90;;;;;;5020419;28;19948;-82
2022/01/29 04:06:00;;;;;;;;;;;0.20;99.90;;;;;;5020302;28;20434;-80
2022/01/29 04:08:26;;;;;;;;;;;0.20;99.90;;;;;;5004249;28;19917;-81
2022/01/29 04:10:52;;;;;;;;;;;0.30;99.90;;;;;;5015846;28;19932;-82
2022/01/29 04:13:22;;;;;;;;;;;0.30;99.90;;;;;;5019670;28;19988;-80
2022/01/29 04:15:47;;;;;;;;;;;0.40;99.90;;;;;;5025187;28;19921;-82
2022/01/29 04:18:13;;;;;;;;;;;0.40;99.90;;;;;;5023517;28;19939;-81
2022/01/29 04:20:38;;;;;;;;;;;0.40;99.90;;;;;;5009838;28;19948;-80
2022/01/29 04:23:07;;;;;;;;;;;0.40;99.90;;;;;;5023226;28;19918;-80
2022/01/29 04:25:33;;;;;;;;;;;0.30;99.90;;;;;;5017626;28;19920;-83
2022/01/29 04:27:59;;;;;;;;;;;0.30;99.90;;;;;;5022926;28;19926;-82
2022/01/29 04:35:19;;;;;;;;;;;0.30;99.90;;;;;;5019333;28;19979;-79
2022/01/29 04:37:44;;;;;;;;;;;0.30;99.90;;;;;;5003479;28;20360;-80
2022/01/29 04:40:10;;;;;;;;;;;0.30;99.90;;;;;;5019210;28;19971;-78
2022/01/29 04:42:36;;;;;;;;;;;0.30;99.90;;;;;;5005950;28;19921;-81
2022/01/29 04:45:01;;;;;;;;;;;0.40;99.90;;;;;;5018615;28;19928;-80
2022/01/29 04:47:27;;;;;;;;;;;0.40;99.90;;;;;;5000527;28;20011;-80
2022/01/29 04:49:53;;;;;;;;;;;0.30;99.90;;;;;;4995833;28;20015;-81
2022/01/29 04:52:18;;;;;;;;;;;0.30;99.90;;;;;;5001349;28;19925;-80
2022/01/29 04:54:44;;;;;;;;;;;0.30;99.90;;;;;;5014600;28;19917;-80
2022/01/29 04:57:09;;;;;;;;;;;0.40;99.90;;;;;;5004208;28;19921;-79
2022/01/29 04:59:35;;;;;;;;;;;0.40;99.90;;;;;;5018135;28;20301;-79
2022/01/29 05:02:00;;;;;;;;;;;0.40;99.90;;;;;;5018275;28;19918;-82
2022/01/29 05:04:26;;;;;;;;;;;0.40;99.90;;;;;;5015917;28;19917;-81
2022/01/29 05:06:51;;;;;;;;;;;0.30;99.90;;;;;;5004327;28;19929;-82
2022/01/29 05:09:17;;;;;;;;;;;0.30;99.90;;;;;;5024593;28;19919;-80
2022/01/29 05:11:46;;;;;;;;;;;0.30;99.90;;;;;;5002232;28;19921;-81
2022/01/29 05:14:19;;;;;;;;;;;0.20;99.90;;;;;;5017654;28;19918;-85
2022/01/29 05:25:33;;;;;;;;;;;0.30;99.90;;;;;;5018012;28;19917;-85
2022/01/29 05:27:47;;;;;;;;;;;0.40;99.90;;;;;;4995751;28;19917;-86
2022/01/29 05:30:13;;;;;;;;;;;0.40;99.90;;;;;;5003882;28;20380;-85
2022/01/29 05:32:38;;;;;;;;;;;0.30;99.90;;;;;;5002345;28;19922;-84
2022/01/29 05:35:04;;;;;;;;;;;0.30;99.90;;;;;;5019529;28;20270;-87
2022/01/29 05:37:30;;;;;;;;;;;0.40;99.90;;;;;;5031097;28;19920;-86
2022/01/29 05:39:55;;;;;;;;;;;0.40;99.90;;;;;;5018541;28;19983;-85
2022/01/29 05:42:21;;;;;;;;;;;0.50;99.90;;;;;;5004665;28;19925;-86
2022/01/29 05:44:46;;;;;;;;;;;0.50;99.90;;;;;;5010914;28;19956;-85
2022/01/29 05:47:12;;;;;;;;;;;0.50;99.90;;;;;;5009872;28;19949;-85
2022/01/29 05:49:40;;;;;;;;;;;0.50;99.90;;;;;;5011598;28;19924;-87
2022/01/29 05:52:05;;;;;;;;;;;0.50;99.90;;;;;;5008182;28;20376;-86
2022/01/29 05:54:31;;;;;;;;;;;0.40;99.90;;;;;;5013050;28;19920;-87
2022/01/29 05:56:59;;;;;;;;;;;0.40;99.90;;;;;;5021218;28;19917;-85
2022/01/29 05:59:24;;;;;;;;;;;0.50;99.90;;;;;;5010636;28;19914;-87
2022/01/29 06:01:50;;;;;;;;;;;0.50;99.90;;;;;;5010640;28;19924;-86
2022/01/29 06:04:15;;;;;;;;;;;0.50;99.90;;;;;;5011321;28;19961;-85
2022/01/29 06:06:41;;;;;;;;;;;0.50;99.90;;;;;;5000506;28;19921;-87
2022/01/29 06:09:09;;;;;;;;;;;0.50;99.90;;;;;;5011257;28;20345;-86
2022/01/29 06:11:35;;;;;;;;;;;0.60;99.90;;;;;;5005583;28;19918;-87
2022/01/29 06:14:00;;;;;;;;;;;0.60;99.90;;;;;;5010323;28;19913;-86
2022/01/29 06:16:26;;;;;;;;;;;0.50;99.90;;;;;;5010876;28;20036;-86
2022/01/29 06:18:52;;;;;;;;;;;0.50;99.90;;;;;;5001672;28;19975;-86
2022/01/29 06:21:17;;;;;;;;;;;0.50;99.90;;;;;;5011438;28;19909;-85
2022/01/29 06:23:44;;;;;;;;;;;0.50;99.90;;;;;;5022040;28;19948;-86
2022/01/29 06:26:10;;;;;;;;;;;0.60;99.90;;;;;;5030135;28;20585;-87
2022/01/29 06:28:36;;;;;;;;;;;0.60;99.90;;;;;;5030501;28;19913;-87
2022/01/29 06:31:05;;;;;;;;;;;0.70;99.90;;;;;;5030060;28;20269;-88
2022/01/29 06:33:31;;;;;;;;;;;0.70;99.90;;;;;;5018292;28;20015;-80
2022/01/29 06:35:57;;;;;;;;;;;0.70;99.90;;;;;;5020997;28;20012;-83
2022/01/29 06:38:23;;;;;;;;;;;0.70;99.90;;;;;;5020662;28;19913;-79
2022/01/29 06:40:48;;;;;;;;;;;0.70;99.90;;;;;;5000098;28;19929;-82
2022/01/29 06:43:14;;;;;;;;;;;0.80;99.90;;;;;;5017133;28;19917;-80
2022/01/29 06:45:40;;;;;;;;;;;0.80;99.90;;;;;;4998975;28;20388;-83
2022/01/29 06:48:06;;;;;;;;;;;0.80;99.90;;;;;;4999250;28;19925;-84
2022/01/29 06:50:32;;;;;;;;;;;0.80;99.90;;;;;;5001005;28;19922;-81
2022/01/29 06:53:00;;;;;;;;;;;0.80;99.90;;;;;;5015929;28;19913;-84
2022/01/29 06:55:26;;;;;;;;;;;0.80;99.90;;;;;;5000447;28;20611;-82
2022/01/29 06:57:52;;;;;;;;;;;0.80;99.90;;;;;;5019625;28;19917;-79
2022/01/29 07:00:17;;;;;;;;;;;0.70;99.90;;;;;;4999091;28;20008;-82
2022/01/29 07:02:43;;;;;;;;;;;0.80;99.90;;;;;;5020515;28;20391;-83
2022/01/29 07:05:09;;;;;;;;;;;0.70;99.90;;;;;;5000698;28;19925;-80
2022/01/29 07:07:35;;;;;;;;;;;0.70;99.90;;;;;;5018344;28;20716;-79
2022/01/29 07:10:00;;;;;;;;;;;0.70;99.90;;;;;;5018591;28;19917;-80
2022/01/29 07:12:26;;;;;;;;;;;0.70;99.90;;;;;;5021753;28;19939;-80
2022/01/29 07:14:52;;;;;;;;;;;0.70;99.90;;;;;;5018242;28;19964;-83
2022/01/29 07:17:23;;;;;;;;;;;0.70;99.90;;;;;;5000673;28;19968;-79
2022/01/29 07:19:50;;;;;;;;;;;0.70;99.90;;;;;;5012332;28;19932;-79
2022/01/29 07:22:16;;;;;;;;;;;0.70;99.90;;;;;;4998889;28;19968;-78
2022/01/29 07:24:41;;;;;;;;;;;0.70;99.90;;;;;;5013250;28;19949;-81
2022/01/29 07:27:07;;;;;;;;;;;0.70;99.90;;;;;;5016572;28;19925;-81
2022/01/29 07:29:36;;;;;;;;;;;0.70;99.90;;;;;;5007817;28;19920;-82
2022/01/29 07:32:02;;;;;;;;;;;0.70;99.90;;;;;;5020138;28;19918;-80
2022/01/29 07:34:28;;;;;;;;;;;0.80;99.90;;;;;;5019251;28;20099;-82
2022/01/29 07:36:54;;;;;;;;;;;0.80;99.90;;;;;;5023216;28;20387;-79
2022/01/29 07:39:21;;;;;;;;;;;0.80;99.90;;;;;;5020229;28;19917;-81
2022/01/29 07:41:47;;;;;;;;;;;0.80;99.90;;;;;;5021143;28;19996;-80
2022/01/29 07:44:12;;;;;;;;;;;0.90;99.90;;;;;;5001760;28;20002;-79
2022/01/29 07:46:38;;;;;;;;;;;0.90;99.90;;;;;;5023484;28;19957;-82
2022/01/29 07:49:04;;;;;;;;;;;0.90;99.90;;;;;;5024980;28;20323;-82
2022/01/29 07:51:29;;;;;;;;;;;1.00;99.90;;;;;;4999157;28;19983;-81
2022/01/29 07:53:55;;;;;;;;;;;1.00;99.90;;;;;;5016682;28;19921;-80
2022/01/29 07:56:21;;;;;;;;;;;1.00;99.90;;;;;;4979402;28;19965;-80
2022/01/29 07:58:49;;;;;;;;;;;1.10;99.90;;;;;;5005180;28;20037;-80
2022/01/29 08:01:15;;;;;;;;;;;1.10;99.90;;;;;;5019420;28;19917;-79
2022/01/29 08:03:41;;;;;;;;;;;1.10;99.90;;;;;;5016139;28;19920;-80
2022/01/29 08:06:07;;;;;;;;;;;1.10;99.90;;;;;;5015647;28;19917;-83
2022/01/29 08:08:33;;;;;;;;;;;1.10;99.90;;;;;;5005240;28;19967;-81
2022/01/29 08:10:59;;;;;;;;;;;1.10;99.90;;;;;;5003234;28;19921;-80
2022/01/29 08:13:25;;;;;;;;;;;1.10;99.90;;;;;;5024134;28;19924;-81
2022/01/29 08:15:50;;;;;;;;;;;1.10;99.90;;;;;;5010423;28;19997;-81
2022/01/29 08:18:16;;;;;;;;;;;1.20;99.90;;;;;;5017792;28;19921;-83
2022/01/29 08:20:41;;;;;;;;;;;1.20;99.90;;;;;;5011802;28;19925;-80
2022/01/29 08:23:07;;;;;;;;;;;1.20;99.90;;;;;;5024094;28;20306;-80
2022/01/29 08:25:33;;;;;;;;;;;1.30;99.90;;;;;;5014430;28;20364;-79
2022/01/29 08:27:58;;;;;;;;;;;1.30;99.90;;;;;;4999788;28;19925;-80
2022/01/29 08:30:24;;;;;;;;;;;1.30;99.90;;;;;;5017816;28;19928;-80
2022/01/29 08:32:49;;;;;;;;;;;1.20;99.90;;;;;;5011755;28;19913;-83
2022/01/29 08:35:15;;;;;;;;;;;1.30;99.90;;;;;;5015254;28;19951;-82
2022/01/29 08:37:41;;;;;;;;;;;1.20;99.90;;;;;;5012748;28;20387;-85
2022/01/29 08:40:07;;;;;;;;;;;1.30;99.90;;;;;;5013409;28;20254;-84
2022/01/29 08:42:33;;;;;;;;;;;1.30;99.90;;;;;;5009823;28;19948;-85
2022/01/29 08:44:59;;;;;;;;;;;1.30;99.90;;;;;;5011474;28;20509;-84
2022/01/29 08:47:25;;;;;;;;;;;1.40;99.90;;;;;;5018231;28;20431;-85
2022/01/29 08:49:50;;;;;;;;;;;1.40;99.90;;;;;;5019838;28;19913;-85
2022/01/29 08:52:19;;;;;;;;;;;1.50;99.90;;;;;;5007042;28;20060;-84
2022/01/29 08:54:44;;;;;;;;;;;1.40;99.90;;;;;;5030204;28;19913;-84
2022/01/29 08:57:10;;;;;;;;;;;1.40;99.90;;;;;;5019029;28;20710;-84
2022/01/29 08:59:35;;;;;;;;;;;1.50;99.90;;;;;;5019661;28;19928;-85
2022/01/29 09:02:01;;;;;;;;;;;1.60;99.90;;;;;;5013214;28;19924;-82
2022/01/29 09:04:26;;;;;;;;;;;1.70;99.90;;;;;;5023360;28;19928;-84
2022/01/29 09:06:54;;;;;;;;;;;1.70;99.90;;;;;;4999350;28;20316;-83
2022/01/29 09:09:24;;;;;;;;;;;1.80;99.90;;;;;;5016702;28;19909;-84
2022/01/29 09:11:51;;;;;;;;;;;1.90;99.90;;;;;;5011925;28;20369;-83
2022/01/29 09:14:17;;;;;;;;;;;2.00;99.90;;;;;;5001968;28;19913;-82
2022/01/29 09:16:42;;;;;;;;;;;2.00;99.90;;;;;;5025053;28;19924;-84
2022/01/29 09:19:08;;;;;;;;;;;2.00;99.90;;;;;;5021369;28;19929;-83
2022/01/29 09:21:34;;;;;;;;;;;2.00;99.90;;;;;;5027810;28;19924;-84
2022/01/29 09:23:59;;;;;;;;;;;2.00;99.90;;;;;;5008961;28;20311;-83
2022/01/29 09:26:25;;;;;;;;;;;2.10;99.90;;;;;;5020340;28;20031;-83
2022/01/29 09:28:50;;;;;;;;;;;2.20;99.90;;;;;;5027155;28;19952;-81
2022/01/29 09:31:16;;;;;;;;;;;2.30;99.90;;;;;;5019363;28;20315;-85
2022/01/29 09:33:41;;;;;;;;;;;2.30;98.50;;;;;;5001177;28;19936;-82
2022/01/29 09:36:07;;;;;;;;;;;2.40;98.70;;;;;;5023160;28;19917;-84
2022/01/29 09:38:32;;;;;;;;;;;2.40;98.00;;;;;;5023037;28;19995;-86
2022/01/29 09:41:01;;;;;;;;;;;2.50;97.30;;;;;;5006172;28;20028;-83
2022/01/29 09:43:28;;;;;;;;;;;2.60;97.30;;;;;;5021432;28;19924;-84
2022/01/29 09:45:54;;;;;;;;;;;2.70;95.70;;;;;;5010569;28;20411;-82
2022/01/29 09:48:21;;;;;;;;;;;2.80;95.30;;;;;;5017493;28;19925;-83
2022/01/29 09:50:47;;;;;;;;;;;2.80;96.30;;;;;;5026240;28;19913;-84
2022/01/29 09:53:15;;;;;;;;;;;2.80;94.40;;;;;;5015245;28;19928;-86
2022/01/29 09:55:43;;;;;;;;;;;2.80;94.40;;;;;;5011982;28;19917;-82
2022/01/29 09:58:09;;;;;;;;;;;2.90;95.10;;;;;;5023099;28;19921;-82
2022/01/29 10:00:35;;;;;;;;;;;2.80;94.30;;;;;;5012079;28;19979;-83
2022/01/29 10:03:17;;;;;;;;;;;2.80;94.90;;;;;;5010145;28;19924;-84
2022/01/29 10:05:47;;;;;;;;;;;2.70;94.00;;;;;;5006785;28;19921;-85
2022/01/29 10:08:13;;;;;;;;;;;2.70;95.00;;;;;;5024302;28;19924;-84
2022/01/29 10:10:39;;;;;;;;;;;2.60;94.70;;;;;;5008680;28;19929;-85
2022/01/29 10:13:23;;;;;;;;;;;2.70;95.00;;;;;;5014434;28;19925;-83
2022/01/29 10:15:49;;;;;;;;;;;2.90;93.40;;;;;;5003743;28;19917;-85
2022/01/29 10:18:21;;;;;;;;;;;3.30;91.40;;;;;;5018185;28;19921;-83
2022/01/29 10:20:47;;;;;;;;;;;3.70;90.70;;;;;;5018057;28;19958;-86
2022/01/29 10:23:12;;;;;;;;;;;4.00;88.80;;;;;;5011680;28;19936;-85
2022/01/29 10:25:42;;;;;;;;;;;3.90;87.90;;;;;;4997370;28;19928;-85
2022/01/29 10:28:15;;;;;;;;;;;4.00;87.90;;;;;;5020710;28;19917;-84
2022/01/29 10:30:50;;;;;;;;;;;3.90;87.10;;;;;;5021892;28;19917;-83
2022/01/29 10:33:18;;;;;;;;;;;3.70;87.90;;;;;;5018104;28;19921;-84
2022/01/29 10:35:44;;;;;;;;;;;3.60;88.60;;;;;;5016780;28;20361;-84
2022/01/29 10:38:09;;;;;;;;;;;3.60;89.50;;;;;;5020619;28;19917;-83
2022/01/29 10:40:35;;;;;;;;;;;3.60;88.70;;;;;;5013993;28;19918;-81
2022/01/29 10:43:06;;;;;;;;;;;3.60;87.50;;;;;;4997575;28;19929;-84
2022/01/29 10:45:35;;;;;;;;;;;3.80;87.40;;;;;;5006449;28;19948;-84
2022/01/29 10:48:03;;;;;;;;;;;4.00;84.40;;;;;;5017156;28;19920;-83
2022/01/29 10:50:29;;;;;;;;;;;4.10;83.90;;;;;;5018752;28;20032;-85
2022/01/29 10:52:57;;;;;;;;;;;4.30;81.20;;;;;;5018965;28;20067;-84
2022/01/29 10:55:23;;;;;;;;;;;4.40;81.60;;;;;;5021284;28;20006;-82
2022/01/29 10:57:49;;;;;;;;;;;4.60;78.90;;;;;;4999132;28;19956;-84
2022/01/29 11:00:24;;;;;;;;;;;4.60;77.40;;;;;;5013102;28;19921;-84
2022/01/29 11:02:51;;;;;;;;;;;4.90;79.30;;;;;;5013525;28;19913;-83
2022/01/29 11:05:17;;;;;;;;;;;5.00;77.30;;;;;;5019771;28;19995;-83
2022/01/29 11:07:45;;;;;;;;;;;5.20;76.40;;;;;;5019751;28;20004;-84
2022/01/29 11:10:11;;;;;;;;;;;5.00;74.30;;;;;;5016389;28;19913;-82
2022/01/29 11:12:41;;;;;;;;;;;5.00;74.60;;;;;;5015820;28;19914;-84
2022/01/29 11:15:06;;;;;;;;;;;5.10;74.80;;;;;;5021088;28;19924;-84
2022/01/29 11:17:35;;;;;;;;;;;5.20;72.70;;;;;;5022930;28;19918;-83
2022/01/29 11:20:01;;;;;;;;;;;5.40;73.60;;;;;;5019107;28;19917;-83
2022/01/29 11:22:31;;;;;;;;;;;5.30;70.30;;;;;;5018283;28;19917;-83
2022/01/29 11:25:01;;;;;;;;;;;5.30;69.80;;;;;;5006350;28;19921;-82
2022/01/29 11:27:27;;;;;;;;;;;5.10;70.10;;;;;;5016961;28;19925;-82
2022/01/29 11:29:59;;;;;;;;;;;4.80;71.30;;;;;;5031081;28;19996;-83
2022/01/29 11:32:35;;;;;;;;;;;4.80;72.20;;;;;;5003145;28;19921;-83
2022/01/29 11:35:20;;;;;;;;;;;4.80;73.90;;;;;;5033273;28;19909;-85
2022/01/29 11:38:04;;;;;;;;;;;4.90;75.50;;;;;;5027776;28;19921;-83
2022/01/29 11:40:33;;;;;;;;;;;4.90;75.80;;;;;;4993262;28;19917;-83
2022/01/29 11:43:09;;;;;;;;;;;5.00;75.40;;;;;;5014910;28;20011;-83
2022/01/29 11:45:42;;;;;;;;;;;4.80;75.00;;;;;;5018745;28;19928;-82
2022/01/29 11:48:20;;;;;;;;;;;4.90;75.90;;;;;;5026903;28;19917;-83
2022/01/29 11:50:46;;;;;;;;;;;4.90;73.50;;;;;;5010756;28;19955;-85
2022/01/29 11:53:13;;;;;;;;;;;5.10;74.20;;;;;;5024650;28;20637;-84
2022/01/29 11:55:44;;;;;;;;;;;5.00;73.60;;;;;;5018376;28;19921;-84
2022/01/29 11:58:12;;;;;;;;;;;5.10;74.20;;;;;;5017179;28;19960;-84
2022/01/29 12:00:38;;;;;;;;;;;5.20;73.30;;;;;;5013804;28;19921;-86
2022/01/29 12:03:04;;;;;;;;;;;5.30;71.30;;;;;;5005487;28;20016;-85
2022/01/29 12:05:31;;;;;;;;;;;5.40;75.20;;;;;;5000896;28;19952;-82
2022/01/29 12:08:14;;;;;;;;;;;5.50;70.70;;;;;;5018350;28;19917;-85
2022/01/29 12:10:52;;;;;;;;;;;5.50;72.30;;;;;;5029112;28;19913;-85
2022/01/29 12:13:18;;;;;;;;;;;5.40;72.40;;;;;;5034068;28;19913;-84
2022/01/29 12:15:44;;;;;;;;;;;5.50;72.50;;;;;;5022048;28;19921;-85
2022/01/29 12:18:23;;;;;;;;;;;5.60;70.80;;;;;;5013617;28;19921;-86
2022/01/29 12:20:49;;;;;;;;;;;5.80;70.30;;;;;;5013437;28;20004;-87
2022/01/29 12:23:14;;;;;;;;;;;5.80;69.10;;;;;;5020555;28;19944;-84
2022/01/29 12:25:40;;;;;;;;;;;5.80;67.70;;;;;;5012683;28;20380;-86
2022/01/29 12:28:07;;;;;;;;;;;5.60;67.50;;;;;;5009520;28;20304;-84
2022/01/29 12:30:34;;;;;;;;;;;5.80;69.20;;;;;;5011109;28;20372;-87
2022/01/29 12:32:59;;;;;;;;;;;5.80;69.30;;;;;;5015047;28;19932;-86
2022/01/29 12:35:32;;;;;;;;;;;5.80;69.80;;;;;;5006452;28;19917;-86
2022/01/29 12:37:58;;;;;;;;;;;5.80;70.60;;;;;;5016265;28;19999;-85
2022/01/29 12:40:25;;;;;;;;;;;5.80;70.60;;;;;;5010664;28;20349;-87
2022/01/29 12:42:59;;;;;;;;;;;5.80;68.30;;;;;;5003603;28;19960;-84
2022/01/29 12:45:26;;;;;;;;;;;5.90;68.80;;;;;;5024331;28;19914;-88
2022/01/29 12:48:05;;;;;;;;;;;6.10;69.10;;;;;;5015234;28;19917;-86
2022/01/29 12:50:30;;;;;;;;;;;6.80;68.30;;;;;;5014895;28;19997;-85
2022/01/29 12:53:16;;;;;;;;;;;7.30;69.10;;;;;;5013570;28;19945;-83
2022/01/29 12:55:42;;;;;;;;;;;7.30;66.60;;;;;;5012503;28;19956;-88
2022/01/29 12:58:07;;;;;;;;;;;6.90;67.40;;;;;;4996859;28;19953;-86
2022/01/29 13:00:34;;;;;;;;;;;6.90;67.40;;;;;;5015557;28;20387;-83
2022/01/29 13:03:07;;;;;;;;;;;6.90;67.40;;;;;;5017387;28;19924;-85
2022/01/29 13:05:42;;;;;;;;;;;7.00;67.90;;;;;;5010054;28;19913;-85
2022/01/29 13:08:09;;;;;;;;;;;7.00;69.50;;;;;;5010301;28;20372;-84
2022/01/29 13:10:35;;;;;;;;;;;6.80;68.40;;;;;;5017301;28;20368;-85
2022/01/29 13:13:04;;;;;;;;;;;6.80;68.10;;;;;;4999452;28;19913;-82
2022/01/29 13:15:37;;;;;;;;;;;6.80;69.30;;;;;;5013011;28;19913;-84
2022/01/29 13:18:09;;;;;;;;;;;6.80;69.50;;;;;;5013283;28;19909;-84
2022/01/29 13:20:35;;;;;;;;;;;6.80;68.60;;;;;;5008398;28;19914;-85
2022/01/29 13:23:01;;;;;;;;;;;6.70;67.80;;;;;;5009990;28;19960;-85
2022/01/29 13:25:28;;;;;;;;;;;6.70;68.50;;;;;;5009554;28;19917;-85
2022/01/29 13:28:07;;;;;;;;;;;6.80;69.70;;;;;;5012226;28;20680;-85
2022/01/29 13:30:33;;;;;;;;;;;6.70;68.60;;;;;;5010535;28;19974;-86
2022/01/29 13:33:15;;;;;;;;;;;6.80;68.80;;;;;;5010090;28;19965;-83
2022/01/29 13:35:51;;;;;;;;;;;6.80;68.70;;;;;;5009886;28;19957;-83
2022/01/29 13:38:18;;;;;;;;;;;7.10;70.00;;;;;;5016250;28;19921;-82
2022/01/29 13:40:44;;;;;;;;;;;7.00;68.10;;;;;;5014812;28;19924;-85
2022/01/29 13:43:11;;;;;;;;;;;6.90;69.10;;;;;;5019818;28;19918;-83
2022/01/29 13:46:06;;;;;;;;;;;6.90;69.90;;;;;;5020379;28;19909;-84
2022/01/29 13:48:41;;;;;;;;;;;7.00;70.50;;;;;;4964684;28;19968;-84
2022/01/29 13:51:06;;;;;;;;;;;7.10;71.40;;;;;;5016069;28;19909;-85
2022/01/29 13:53:39;;;;;;;;;;;7.20;71.30;;;;;;5016845;28;19917;-84
2022/01/29 13:56:08;;;;;;;;;;;7.00;71.20;;;;;;4994752;28;20017;-85
2022/01/29 13:58:52;;;;;;;;;;;6.80;71.00;;;;;;5032660;28;19943;-84
2022/01/29 14:01:33;;;;;;;;;;;6.80;72.70;;;;;;5020768;28;19917;-84
2022/01/29 14:03:59;;;;;;;;;;;6.90;72.50;;;;;;5009391;28;19922;-85
2022/01/29 14:06:28;;;;;;;;;;;6.90;73.50;;;;;;5002879;28;19963;-85
2022/01/29 14:09:06;;;;;;;;;;;6.80;72.90;;;;;;4993396;28;20005;-84
2022/01/29 14:11:50;;;;;;;;;;;6.90;73.90;;;;;;5016513;28;20349;-84
2022/01/29 14:14:16;;;;;;;;;;;6.90;74.50;;;;;;5017907;28;19964;-85
2022/01/29 14:16:41;;;;;;;;;;;6.90;75.70;;;;;;5016085;28;19961;-83
2022/01/29 14:19:17;;;;;;;;;;;6.90;74.90;;;;;;5014340;28;19921;-84
2022/01/29 14:21:42;;;;;;;;;;;6.90;75.90;;;;;;5016601;28;19917;-84
2022/01/29 14:24:08;;;;;;;;;;;6.90;75.00;;;;;;5019799;28;19913;-86
2022/01/29 14:26:33;;;;;;;;;;;6.90;73.50;;;;;;5017745;28;19928;-84
2022/01/29 14:28:59;;;;;;;;;;;6.80;72.80;;;;;;5006445;28;19975;-82
2022/01/29 14:31:25;;;;;;;;;;;6.70;75.10;;;;;;5019900;28;19917;-84
2022/01/29 14:33:52;;;;;;;;;;;6.60;76.00;;;;;;4995369;28;20106;-82
2022/01/29 14:36:18;;;;;;;;;;;6.60;75.40;;;;;;5026264;28;19920;-84
2022/01/29 14:38:44;;;;;;;;;;;6.50;75.30;;;;;;5016989;28;19918;-83
2022/01/29 14:41:09;;;;;;;;;;;6.40;75.00;;;;;;5021416;28;19917;-85
2022/01/29 14:43:35;;;;;;;;;;;6.40;76.20;;;;;;5004358;28;19913;-86